createdAt,value
2022-12-19T00:01:36.477Z,-3.80
2022-12-19T00:04:07.774Z,-3.80
2022-12-19T00:06:36.065Z,-3.80
2022-12-19T00:09:03.292Z,-3.80
2022-12-19T00:11:30.839Z,-3.80
2022-12-19T00:13:58.357Z,-3.80
2022-12-19T00:16:29.900Z,-3.80
2022-12-19T00:18:59.285Z,-3.80
2022-12-19T00:21:34.008Z,-3.80
2022-12-19T00:24:03.581Z,-3.80
2022-12-19T00:26:37.284Z,-3.80
2022-12-19T00:29:12.548Z,-3.80
2022-12-19T00:34:09.180Z,-3.80
2022-12-19T00:36:36.207Z,-3.80
2022-12-19T00:41:51.457Z,-3.80
2022-12-19T00:46:50.240Z,-3.80
2022-12-19T00:49:20.089Z,-3.80
2022-12-19T00:54:33.555Z,-3.80
2022-12-19T00:57:00.584Z,-3.80
2022-12-19T00:59:27.498Z,-3.90
2022-12-19T01:01:54.535Z,-3.90
2022-12-19T01:04:29.574Z,-3.90
2022-12-19T01:09:44.178Z,-3.90
2022-12-19T01:15:04.424Z,-3.90
2022-12-19T01:20:29.117Z,-3.90
2022-12-19T01:22:57.283Z,-3.90
2022-12-19T01:25:26.557Z,-3.90
2022-12-19T01:27:54.995Z,-3.90
2022-12-19T01:30:21.794Z,-4.00
2022-12-19T01:32:49.820Z,-4.00
2022-12-19T01:35:21.327Z,-3.90
2022-12-19T01:37:49.322Z,-4.00
2022-12-19T01:40:16.064Z,-4.00
2022-12-19T01:42:42.838Z,-4.00
2022-12-19T01:45:13.327Z,-4.00
2022-12-19T01:47:53.505Z,-4.00
2022-12-19T01:50:39.061Z,-4.00
2022-12-19T01:53:11.211Z,-4.00
2022-12-19T01:55:41.344Z,-4.00
2022-12-19T02:00:56.221Z,-4.00
2022-12-19T02:06:17.437Z,-4.00
2022-12-19T02:11:14.117Z,-4.00
2022-12-19T02:13:41.438Z,-4.10
2022-12-19T02:16:28.045Z,-4.00
2022-12-19T02:22:29.629Z,-4.00
2022-12-19T02:25:11.205Z,-4.00
2022-12-19T02:27:56.573Z,-4.00
2022-12-19T02:30:44.336Z,-4.10
2022-12-19T02:33:40.956Z,-4.10
2022-12-19T02:36:46.745Z,-4.00
2022-12-19T02:39:33.912Z,-4.10
2022-12-19T02:42:02.549Z,-4.00
2022-12-19T02:44:34.060Z,-4.00
2022-12-19T02:47:03.684Z,-4.00
2022-12-19T02:49:32.788Z,-4.00
2022-12-19T02:52:29.328Z,-3.90
2022-12-19T02:55:00.897Z,-3.90
2022-12-19T02:57:40.998Z,-4.00
2022-12-19T03:00:07.971Z,-4.00
2022-12-19T03:02:53.201Z,-4.00
2022-12-19T03:05:32.481Z,-4.00
2022-12-19T03:08:09.149Z,-4.00
2022-12-19T03:10:45.467Z,-4.00
2022-12-19T03:15:50.368Z,-3.90
2022-12-19T03:18:17.786Z,-3.90
2022-12-19T03:20:56.449Z,-3.80
2022-12-19T03:23:23.288Z,-3.90
2022-12-19T03:25:53.838Z,-3.90
2022-12-19T03:28:38.554Z,-3.80
2022-12-19T03:31:06.945Z,-3.80
2022-12-19T03:33:34.834Z,-3.80
2022-12-19T03:36:06.231Z,-3.60
2022-12-19T03:38:35.537Z,-3.70
2022-12-19T03:41:04.156Z,-3.70
2022-12-19T03:43:32.561Z,-3.60
2022-12-19T03:48:56.354Z,-3.60
2022-12-19T03:52:10.498Z,-3.60
2022-12-19T03:54:42.820Z,-3.50
2022-12-19T03:57:21.086Z,-3.50
2022-12-19T04:00:17.509Z,-3.50
2022-12-19T04:05:47.609Z,-3.40
2022-12-19T04:11:09.870Z,-3.40
2022-12-19T04:22:55.728Z,-3.40
2022-12-19T04:25:39.293Z,-3.40
2022-12-19T04:31:19.049Z,-3.30
2022-12-19T04:33:45.879Z,-3.30
2022-12-19T04:36:13.098Z,-3.30
2022-12-19T04:38:40.011Z,-3.20
2022-12-19T04:43:53.636Z,-3.20
2022-12-19T04:46:20.420Z,-3.20
2022-12-19T04:48:47.274Z,-3.20
2022-12-19T04:51:15.637Z,-3.10
2022-12-19T04:53:42.355Z,-3.10
2022-12-19T04:56:10.390Z,-3.10
2022-12-19T04:58:37.128Z,-3.00
2022-12-19T05:01:06.711Z,-3.00
2022-12-19T05:03:34.084Z,-2.90
2022-12-19T05:06:08.715Z,-2.90
2022-12-19T05:11:23.661Z,-2.80
2022-12-19T05:13:50.448Z,-2.80
2022-12-19T05:16:17.775Z,-2.80
2022-12-19T05:18:44.645Z,-2.70
2022-12-19T05:21:11.530Z,-2.70
2022-12-19T05:23:38.654Z,-2.70
2022-12-19T05:26:06.737Z,-2.60
2022-12-19T05:28:33.710Z,-2.60
2022-12-19T05:31:06.598Z,-2.60
2022-12-19T05:33:33.962Z,-2.50
2022-12-19T05:36:01.143Z,-2.50
2022-12-19T05:41:17.917Z,-2.40
2022-12-19T05:43:45.912Z,-2.40
2022-12-19T05:46:12.870Z,-2.40
2022-12-19T05:48:39.683Z,-2.40
2022-12-19T05:53:53.400Z,-2.30
2022-12-19T05:59:09.097Z,-2.30
2022-12-19T06:01:35.986Z,-2.30
2022-12-19T06:04:02.985Z,-2.30
2022-12-19T06:06:29.798Z,-2.30
2022-12-19T06:09:00.104Z,-2.30
2022-12-19T06:11:27.364Z,-2.30
2022-12-19T06:13:54.213Z,-2.30
2022-12-19T06:16:22.404Z,-2.20
2022-12-19T06:18:49.417Z,-2.30
2022-12-19T06:21:21.440Z,-2.30
2022-12-19T06:23:48.848Z,-2.30
2022-12-19T06:26:19.981Z,-2.40
2022-12-19T06:28:51.252Z,-2.30
2022-12-19T06:34:06.293Z,-2.20
2022-12-19T06:36:33.067Z,-2.30
2022-12-19T06:38:59.881Z,-2.20
2022-12-19T06:44:16.202Z,-2.20
2022-12-19T06:46:43.637Z,-2.20
2022-12-19T06:49:11.173Z,-2.20
2022-12-19T06:51:38.140Z,-2.20
2022-12-19T06:54:05.241Z,-2.20
2022-12-19T06:56:38.479Z,-2.20
2022-12-19T06:59:06.373Z,-2.20
2022-12-19T07:01:55.568Z,-2.20
2022-12-19T07:04:30.819Z,-2.20
2022-12-19T07:06:58.529Z,-2.20
2022-12-19T07:09:26.632Z,-2.10
2022-12-19T07:11:53.409Z,-2.10
2022-12-19T07:14:20.185Z,-2.10
2022-12-19T07:16:48.137Z,-2.10
2022-12-19T07:19:15.186Z,-2.10
2022-12-19T07:21:42.310Z,-2.10
2022-12-19T07:24:09.955Z,-2.10
2022-12-19T07:26:36.896Z,-2.00
2022-12-19T07:29:04.706Z,-2.00
2022-12-19T07:31:31.481Z,-2.00
2022-12-19T07:33:58.508Z,-2.00
2022-12-19T07:36:25.761Z,-2.00
2022-12-19T07:38:52.546Z,-1.70
2022-12-19T07:41:19.330Z,-2.00
2022-12-19T07:43:46.080Z,-1.90
2022-12-19T07:48:59.816Z,-1.90
2022-12-19T07:51:27.151Z,-1.80
2022-12-19T07:53:53.940Z,-1.80
2022-12-19T07:56:20.803Z,-1.80
2022-12-19T07:58:47.731Z,-1.80
2022-12-19T08:01:14.924Z,-1.70
2022-12-19T08:03:41.807Z,-1.70
2022-12-19T08:06:08.741Z,-1.60
2022-12-19T08:11:22.843Z,-1.60
2022-12-19T08:16:55.696Z,-1.50
2022-12-19T08:19:27.321Z,-1.40
2022-12-19T08:21:54.352Z,-1.40
2022-12-19T08:24:21.062Z,-1.30
2022-12-19T08:26:48.047Z,-1.30
2022-12-19T08:29:14.850Z,-1.30
2022-12-19T08:31:41.637Z,-1.30
2022-12-19T08:34:08.421Z,-1.20
2022-12-19T08:36:35.216Z,-1.20
2022-12-19T08:39:01.990Z,-1.20
2022-12-19T08:41:28.911Z,-1.20
2022-12-19T08:43:56.359Z,-1.20
2022-12-19T08:46:23.624Z,-1.00
2022-12-19T08:48:50.949Z,-1.00
2022-12-19T08:51:18.263Z,-1.00
2022-12-19T08:53:45.971Z,-1.00
2022-12-19T08:56:17.027Z,-0.90
2022-12-19T08:58:44.804Z,-0.90
2022-12-19T09:04:19.491Z,-0.90
2022-12-19T09:06:48.709Z,-0.90
2022-12-19T09:09:15.629Z,-0.90
2022-12-19T09:11:46.660Z,-0.80
2022-12-19T09:14:20.488Z,-0.70
2022-12-19T09:16:48.645Z,-0.70
2022-12-19T09:19:15.591Z,-0.70
2022-12-19T09:21:42.610Z,-0.60
2022-12-19T09:24:10.321Z,-0.60
2022-12-19T09:26:37.424Z,-0.60
2022-12-19T09:29:06.724Z,-0.50
2022-12-19T09:34:13.993Z,-0.50
2022-12-19T09:36:40.777Z,-0.40
2022-12-19T09:39:07.541Z,-0.40
2022-12-19T09:41:42.149Z,-0.40
2022-12-19T09:44:27.509Z,-0.20
2022-12-19T09:49:43.583Z,-0.20
2022-12-19T09:52:25.264Z,-0.20
2022-12-19T09:55:01.090Z,-0.20
2022-12-19T09:57:30.691Z,-0.20
2022-12-19T10:02:57.244Z,-0.10
2022-12-19T10:06:00.410Z,-0.10
2022-12-19T10:08:21.779Z,0.00
2022-12-19T10:12:37.820Z,0.00
2022-12-19T10:17:52.113Z,0.00
2022-12-19T10:20:36.801Z,0.10
2022-12-19T10:26:14.219Z,0.20
2022-12-19T10:29:03.689Z,0.10
2022-12-19T10:31:53.694Z,0.10
2022-12-19T10:34:30.056Z,0.10
2022-12-19T10:37:25.332Z,0.20
2022-12-19T10:40:15.633Z,0.20
2022-12-19T10:43:07.465Z,0.20
2022-12-19T10:45:47.273Z,0.20
2022-12-19T10:48:21.273Z,0.20
2022-12-19T10:50:54.024Z,0.30
2022-12-19T10:56:02.315Z,0.30
2022-12-19T10:58:35.094Z,0.30
2022-12-19T11:04:13.855Z,0.40
2022-12-19T11:06:48.615Z,0.40
2022-12-19T11:09:30.238Z,0.50
2022-12-19T11:15:41.535Z,0.50
2022-12-19T11:19:34.597Z,0.50
2022-12-19T11:29:16.785Z,0.60
2022-12-19T11:29:34.917Z,0.60
2022-12-19T11:29:44.753Z,0.60
2022-12-19T11:30:46.255Z,0.70
2022-12-19T11:32:43.802Z,0.70
2022-12-19T11:35:24.166Z,0.80
2022-12-19T11:38:03.127Z,0.80
2022-12-19T11:40:48.385Z,0.80
2022-12-19T11:43:44.044Z,0.80
2022-12-19T11:46:26.840Z,0.90
2022-12-19T11:53:03.303Z,0.80
2022-12-19T11:55:57.286Z,1.00
2022-12-19T11:58:27.275Z,1.00
2022-12-19T12:01:09.207Z,1.00
2022-12-19T12:03:38.796Z,1.00
2022-12-19T12:12:42.239Z,1.00
2022-12-19T12:20:44.133Z,1.10
2022-12-19T12:25:27.641Z,1.20
2022-12-19T12:31:08.619Z,1.20
2022-12-19T12:31:19.470Z,1.20
2022-12-19T12:31:48.873Z,1.30
2022-12-19T12:31:49.081Z,1.20
2022-12-19T12:31:52.740Z,1.30
2022-12-19T12:35:56.481Z,1.30
2022-12-19T12:38:13.626Z,1.40
2022-12-19T12:42:41.594Z,1.40
2022-12-19T12:45:26.899Z,1.50
2022-12-19T12:47:54.230Z,1.40
2022-12-19T12:50:26.089Z,1.50
2022-12-19T12:52:59.679Z,1.50
2022-12-19T12:59:03.169Z,1.60
2022-12-19T13:01:38.781Z,1.60
2022-12-19T13:04:11.397Z,1.60
2022-12-19T13:07:02.524Z,1.60
2022-12-19T13:09:35.868Z,1.70
2022-12-19T13:12:13.723Z,1.70
2022-12-19T13:17:33.383Z,1.70
2022-12-19T13:22:58.485Z,1.80
2022-12-19T13:25:49.722Z,1.80
2022-12-19T13:28:22.255Z,1.90
2022-12-19T13:31:18.588Z,1.80
2022-12-19T13:33:51.884Z,1.80
2022-12-19T13:39:50.480Z,1.90
2022-12-19T13:40:01.049Z,2.00
2022-12-19T13:42:27.633Z,1.90
2022-12-19T13:47:45.166Z,2.00
2022-12-19T13:50:32.064Z,2.00
2022-12-19T13:52:58.880Z,2.00
2022-12-19T13:58:58.214Z,2.10
2022-12-19T14:01:33.655Z,2.10
2022-12-19T14:04:08.221Z,2.10
2022-12-19T14:06:39.799Z,2.10
2022-12-19T14:11:24.973Z,2.20
2022-12-19T14:13:43.745Z,2.10
2022-12-19T14:15:13.407Z,2.30
2022-12-19T14:17:39.861Z,2.20
2022-12-19T14:22:07.078Z,2.30
2022-12-19T14:23:06.581Z,2.40
2022-12-19T14:28:20.291Z,2.30
2022-12-19T14:28:54.565Z,2.40
2022-12-19T14:31:23.760Z,2.40
2022-12-19T14:34:18.469Z,2.40
2022-12-19T14:36:48.341Z,2.50
2022-12-19T14:39:27.852Z,2.50
2022-12-19T14:42:03.911Z,2.50
2022-12-19T14:52:51.829Z,2.50
2022-12-19T14:54:15.172Z,2.60
2022-12-19T14:54:23.671Z,2.60
2022-12-19T14:54:46.701Z,2.60
2022-12-19T15:02:01.113Z,2.60
2022-12-19T15:04:48.204Z,2.60
2022-12-19T15:07:27.512Z,2.60
2022-12-19T15:10:58.786Z,2.70
2022-12-19T15:14:54.728Z,2.70
2022-12-19T15:16:25.791Z,2.80
2022-12-19T15:18:56.688Z,2.80
2022-12-19T15:24:10.452Z,2.80
2022-12-19T15:26:47.658Z,2.80
2022-12-19T15:29:19.858Z,2.80
2022-12-19T15:31:48.827Z,2.90
2022-12-19T15:34:38.095Z,2.90
2022-12-19T15:37:14.206Z,3.00
2022-12-19T15:39:41.966Z,2.90
2022-12-19T15:47:44.306Z,2.90
2022-12-19T15:50:19.269Z,2.90
2022-12-19T15:52:46.484Z,3.00
2022-12-19T15:55:15.444Z,3.00
2022-12-19T15:57:49.079Z,3.10
2022-12-19T16:00:22.269Z,3.10
2022-12-19T16:03:22.700Z,3.10
2022-12-19T16:05:37.088Z,3.10
2022-12-19T16:08:16.674Z,3.10
2022-12-19T16:10:45.695Z,3.10
2022-12-19T16:13:22.260Z,3.10
2022-12-19T16:15:49.452Z,3.20
2022-12-19T16:18:16.303Z,3.10
2022-12-19T16:23:30.205Z,3.20
2022-12-19T16:28:43.630Z,3.20
2022-12-19T16:34:02.559Z,3.20
2022-12-19T16:36:29.301Z,3.20
2022-12-19T16:38:56.114Z,3.30
2022-12-19T16:41:24.960Z,3.20
2022-12-19T16:43:52.616Z,3.20
2022-12-19T16:46:21.851Z,3.30
2022-12-19T16:48:49.420Z,3.30
2022-12-19T16:51:18.396Z,3.40
2022-12-19T16:53:45.278Z,3.40
2022-12-19T16:59:18.457Z,3.50
2022-12-19T17:04:32.076Z,3.50
2022-12-19T17:06:58.873Z,3.40
2022-12-19T17:09:25.635Z,3.50
2022-12-19T17:11:56.698Z,3.50
2022-12-19T17:14:25.952Z,3.50
2022-12-19T17:16:54.795Z,3.60
2022-12-19T17:19:36.850Z,3.60
2022-12-19T17:22:04.309Z,3.60
2022-12-19T17:24:31.104Z,3.60
2022-12-19T17:26:57.888Z,3.60
2022-12-19T17:29:24.653Z,3.60
2022-12-19T17:31:51.474Z,3.70
2022-12-19T17:34:28.101Z,3.60
2022-12-19T17:36:55.158Z,3.70
2022-12-19T17:39:24.694Z,3.60
2022-12-19T17:41:52.305Z,3.70
2022-12-19T17:44:19.523Z,3.70
2022-12-19T17:46:47.538Z,3.80
2022-12-19T17:49:16.571Z,3.80
2022-12-19T17:51:48.562Z,3.90
2022-12-19T17:54:15.346Z,3.80
2022-12-19T17:56:42.164Z,3.70
2022-12-19T17:59:08.923Z,3.80
2022-12-19T18:01:36.105Z,3.90
2022-12-19T18:04:03.275Z,3.80
2022-12-19T18:06:30.055Z,3.90
2022-12-19T18:08:56.810Z,3.90
2022-12-19T18:11:25.562Z,3.80
2022-12-19T18:16:40.656Z,3.90
2022-12-19T18:22:01.133Z,3.90
2022-12-19T18:27:14.885Z,3.90
2022-12-19T18:29:41.652Z,4.10
2022-12-19T18:32:17.830Z,4.00
2022-12-19T18:34:44.663Z,4.00
2022-12-19T18:37:17.603Z,4.00
2022-12-19T18:39:44.352Z,4.10
2022-12-19T18:42:20.021Z,4.10
2022-12-19T18:44:46.792Z,4.00
2022-12-19T18:47:21.709Z,4.00
2022-12-19T18:49:51.377Z,4.10
2022-12-19T18:55:16.892Z,4.20
2022-12-19T18:57:44.223Z,4.10
2022-12-19T19:00:16.954Z,4.20
2022-12-19T19:02:58.927Z,4.20
2022-12-19T19:05:29.144Z,4.30
2022-12-19T19:07:56.790Z,4.20
2022-12-19T19:10:30.083Z,4.20
2022-12-19T19:12:58.451Z,4.20
2022-12-19T19:18:28.034Z,4.20
2022-12-19T19:21:00.757Z,4.20
2022-12-19T19:23:33.427Z,4.20
2022-12-19T19:26:00.340Z,4.20
2022-12-19T19:28:27.120Z,4.30
2022-12-19T19:30:54.859Z,4.30
2022-12-19T19:33:26.053Z,4.20
2022-12-19T19:35:56.616Z,4.30
2022-12-19T19:38:24.113Z,4.30
2022-12-19T19:43:37.757Z,4.40
2022-12-19T19:48:51.842Z,4.40
2022-12-19T19:51:18.956Z,4.40
2022-12-19T19:53:45.719Z,4.50
2022-12-19T19:56:12.558Z,4.50
2022-12-19T19:58:39.363Z,4.50
2022-12-19T20:01:11.720Z,4.50
2022-12-19T20:03:40.197Z,4.50
2022-12-19T20:06:07.755Z,4.50
2022-12-19T20:08:39.764Z,4.50
2022-12-19T20:11:08.212Z,4.50
2022-12-19T20:13:35.269Z,4.60
2022-12-19T20:16:06.182Z,4.60
2022-12-19T20:18:33.259Z,4.60
2022-12-19T20:21:00.299Z,4.60
2022-12-19T20:23:27.155Z,4.60
2022-12-19T20:25:53.946Z,4.60
2022-12-19T20:28:20.812Z,4.60
2022-12-19T20:30:47.605Z,4.70
2022-12-19T20:33:14.461Z,4.60
2022-12-19T20:35:41.229Z,4.60
2022-12-19T20:38:07.987Z,4.60
2022-12-19T20:43:23.062Z,4.60
2022-12-19T20:48:37.625Z,4.60
2022-12-19T20:51:05.213Z,4.70
2022-12-19T20:53:33.513Z,4.70
2022-12-19T20:56:01.386Z,4.70
2022-12-19T21:01:19.628Z,4.70
2022-12-19T21:03:47.014Z,4.70
2022-12-19T21:06:17.387Z,4.70
2022-12-19T21:08:44.189Z,4.60
2022-12-19T21:11:11.719Z,4.60
2022-12-19T21:13:39.507Z,4.70
2022-12-19T21:16:09.755Z,4.70
2022-12-19T21:18:39.399Z,4.70
2022-12-19T21:21:08.398Z,4.60
2022-12-19T21:23:35.343Z,4.70
2022-12-19T21:26:04.625Z,4.70
2022-12-19T21:28:32.554Z,4.70
2022-12-19T21:31:04.887Z,4.70
2022-12-19T21:36:09.028Z,4.60
2022-12-19T21:38:36.039Z,4.60
2022-12-19T21:41:04.275Z,4.60
2022-12-19T21:43:32.478Z,4.60
2022-12-19T21:46:18.006Z,4.50
2022-12-19T21:48:49.734Z,4.60
2022-12-19T21:51:18.283Z,4.50
2022-12-19T21:56:32.140Z,4.60
2022-12-19T21:59:01.276Z,4.60
2022-12-19T22:01:29.378Z,4.60
2022-12-19T22:04:01.665Z,4.60
2022-12-19T22:06:30.716Z,4.60
2022-12-19T22:08:58.194Z,4.60
2022-12-19T22:11:25.179Z,4.60
2022-12-19T22:13:52.033Z,4.60
2022-12-19T22:16:18.925Z,4.60
2022-12-19T22:18:46.376Z,4.70
2022-12-19T22:21:14.604Z,4.70
2022-12-19T22:23:42.257Z,4.60
2022-12-19T22:26:15.822Z,4.70
2022-12-19T22:28:47.583Z,4.60
2022-12-19T22:31:22.068Z,4.60
2022-12-19T22:33:50.666Z,4.60
2022-12-19T22:36:25.753Z,4.60
2022-12-19T22:38:54.809Z,4.60
2022-12-19T22:44:15.541Z,4.70
2022-12-19T22:46:42.701Z,4.60
2022-12-19T22:49:12.154Z,4.60
2022-12-19T22:51:38.980Z,4.60
2022-12-19T22:56:53.177Z,4.60
2022-12-19T23:02:06.922Z,4.60
2022-12-19T23:07:22.226Z,4.40
2022-12-19T23:09:49.030Z,4.50
2022-12-19T23:12:15.804Z,4.50
2022-12-19T23:14:42.545Z,4.50
2022-12-19T23:17:09.389Z,4.50
2022-12-19T23:19:36.156Z,4.50
2022-12-19T23:22:03.029Z,4.60
2022-12-19T23:24:30.209Z,4.50
2022-12-19T23:26:56.989Z,4.50
2022-12-19T23:29:23.749Z,4.50
2022-12-19T23:31:50.578Z,4.40
2022-12-19T23:34:17.967Z,4.40
2022-12-19T23:37:10.398Z,4.40
2022-12-19T23:42:18.784Z,4.50
2022-12-19T23:47:12.225Z,4.40
2022-12-19T23:49:39.014Z,4.40
2022-12-19T23:52:05.774Z,4.40
2022-12-19T23:54:32.573Z,4.50
2022-12-19T23:56:59.333Z,4.50
2022-12-19T23:59:26.206Z,4.50
